Aeroporto :
LOGIN :

Iscrizione | Disclaimer

   EN    FR    IT 

 










Sommario :    VFR   VFR Marginale   IFR   IFR Intensivo   IFR Molto Intensivo
Visibilità : 
Base nubi : 
>= 8 km
>= 3000ft
5 / 8 km
1000 / 3000 ft
1500m / 5 km
500 / 1000 ft
800 / 1500m
200 / 500 ft
< 800m
< 200 ft
Simboli :   Temporali  Nebbia  Neve Forte  Precipitazioni Forti  Vento > 20 kt
SIGMETs :   Varie  Temporali  Ghiacco  Turbolenza  Onda orograficha  Ceneri Vulcaniche







- Altitudine del aeroporto : 13 ft
- Codice IATA : SNR
- Carte del aeroporto


LFRZ - St-Nazaire

ULTIMO METAR :
  • 241500Z AUTO 36008KT 330V040 9999 FEW048/// SCT086/// BKN120/// ///TCU 19/16 Q1015 TEMPO VRB15G25KT 4000 -SHRA

METARs OBSOLETI :
  • 241430Z AUTO 01005KT 340V040 9999 FEW036 BKN076 BKN098 19/16 Q1015 TEMPO VRB15G25KT 4000 -SHRA SCT050 BKN070TCU
  • 241400Z AUTO 01005KT 9999 FEW038 SCT056 BKN094 19/16 Q1015 TEMPO VRB15G25KT 4000 -SHRA SCT050 BKN070TCU
  • 241330Z AUTO 03007KT 360V070 9999 FEW028 19/17 Q1015 TEMPO VRB15G25KT 4000 -SHRA SCT050 BKN070TCU
  • 241300Z AUTO 05008KT 9999 -RA BKN032 BKN041 BKN049 19/16 Q1015 TEMPO VRB15G25KT 4000 -SHRA SCT050 BKN070TCU
  • 241230Z AUTO 05006KT 010V080 9999 -RA ///TCU 18/16 Q1016 TEMPO VRB15G25KT 4000 -SHRA

TAF TAF LFRZ
Valido dal 24 a 12 ore il 25 a 12 ore UTC


241100Z 2412/2512 07010KT CAVOK
PROB40
TEMPO 2412/2420 VRB15G25KT 4000 -SHRA SCT050 BKN070TCU
TEMPO 2420/2505 VRB15G25KT 4900 SHRA BKN010 BKN060TCU
PROB40
TEMPO 2421/2502 VRB20G35KT 2000 TSRAGR SCT012 BKN050CB
BECMG 2502/2505 VRB03KT SCT008
TEMPO 2506/2509 BKN008
FM250900 24010KT 9999 SCT015
Nessun NOTAM noto per questo aeroporto.
1 SIGMET conosciuto per la FIR Brest (LFRR) :
 
Turbolenza severa
LFRR SIGMET 6 VALID 241400/241800 LFPW
LFRR BREST FIR/UIR SEV TURB FCST WI N4715 W00800 - N4900 W00800 - N4915 W00615 - N4715 W00645 - N4715 W00800 FL200/400 MOV N 30KT INTSF=



MetMap, La meteo Aeronautica in un colpo d'occhio ! - Copyright ORBIFLY Dicembre 2007 - Disclaimer

ORBIFLY MET'MAP TEAM :

Programmazione e sviluppo : Alexandra Zaïnal
Concezione e sviluppo : Baudouin d'Aumeries
Co-Programmazione e sviluppo : Marc-Olivier Méhu
Supporto tecnico e logistico : Manuel Goepfert
Aiuto per la traduzione : Arnaldo La Scala

Contatto : metmap@orbifly.com




FONTI E CREDITI :

   NOAA